sensor_id;sensor_type;location;lat;lon;timestamp;temperature;humidity
39371;DHT22;25099;51.946;4.838;2023-02-18T00:02:07;9.80;99.90
39371;DHT22;25099;51.946;4.838;2023-02-18T00:04:33;9.80;99.90
39371;DHT22;25099;51.946;4.838;2023-02-18T00:06:58;9.80;99.90
39371;DHT22;25099;51.946;4.838;2023-02-18T00:09:24;9.80;99.90
39371;DHT22;25099;51.946;4.838;2023-02-18T00:11:50;9.80;99.90
39371;DHT22;25099;51.946;4.838;2023-02-18T00:14:16;9.80;99.90
39371;DHT22;25099;51.946;4.838;2023-02-18T00:16:43;9.70;99.90
39371;DHT22;25099;51.946;4.838;2023-02-18T00:19:12;9.70;99.90
39371;DHT22;25099;51.946;4.838;2023-02-18T00:21:38;9.70;99.90
39371;DHT22;25099;51.946;4.838;2023-02-18T00:24:05;9.70;99.90
39371;DHT22;25099;51.946;4.838;2023-02-18T00:26:32;9.60;99.90
39371;DHT22;25099;51.946;4.838;2023-02-18T00:28:58;9.60;99.90
39371;DHT22;25099;51.946;4.838;2023-02-18T00:31:26;9.60;99.90
39371;DHT22;25099;51.946;4.838;2023-02-18T00:33:52;9.60;99.90
39371;DHT22;25099;51.946;4.838;2023-02-18T00:36:19;9.60;99.90
39371;DHT22;25099;51.946;4.838;2023-02-18T00:38:52;9.50;99.90
39371;DHT22;25099;51.946;4.838;2023-02-18T00:41:19;9.50;99.90
39371;DHT22;25099;51.946;4.838;2023-02-18T00:43:45;9.50;99.90
39371;DHT22;25099;51.946;4.838;2023-02-18T00:46:11;9.50;99.90
39371;DHT22;25099;51.946;4.838;2023-02-18T00:48:36;9.50;99.90
39371;DHT22;25099;51.946;4.838;2023-02-18T00:51:03;9.50;99.90
39371;DHT22;25099;51.946;4.838;2023-02-18T00:53:29;9.50;99.90
39371;DHT22;25099;51.946;4.838;2023-02-18T00:55:55;9.50;99.90
39371;DHT22;25099;51.946;4.838;2023-02-18T00:58:20;9.50;99.90
39371;DHT22;25099;51.946;4.838;2023-02-18T01:00:46;9.50;99.90
39371;DHT22;25099;51.946;4.838;2023-02-18T01:03:13;9.50;99.90
39371;DHT22;25099;51.946;4.838;2023-02-18T01:05:39;9.50;99.90
39371;DHT22;25099;51.946;4.838;2023-02-18T01:08:05;9.40;99.90
39371;DHT22;25099;51.946;4.838;2023-02-18T01:10:31;9.40;99.90
39371;DHT22;25099;51.946;4.838;2023-02-18T01:12:57;9.40;99.90
39371;DHT22;25099;51.946;4.838;2023-02-18T01:15:23;9.40;99.90
39371;DHT22;25099;51.946;4.838;2023-02-18T01:17:48;9.30;99.90
39371;DHT22;25099;51.946;4.838;2023-02-18T01:20:17;9.30;99.90
39371;DHT22;25099;51.946;4.838;2023-02-18T01:22:43;9.50;99.90
39371;DHT22;25099;51.946;4.838;2023-02-18T01:25:09;9.30;99.90
39371;DHT22;25099;51.946;4.838;2023-02-18T01:27:35;9.30;99.90
39371;DHT22;25099;51.946;4.838;2023-02-18T01:30:02;9.30;99.90
39371;DHT22;25099;51.946;4.838;2023-02-18T01:32:28;9.30;99.90
39371;DHT22;25099;51.946;4.838;2023-02-18T01:34:54;9.30;99.90
39371;DHT22;25099;51.946;4.838;2023-02-18T01:37:19;9.30;99.90
39371;DHT22;25099;51.946;4.838;2023-02-18T01:39:45;9.40;99.90
39371;DHT22;25099;51.946;4.838;2023-02-18T01:42:21;9.40;99.90
39371;DHT22;25099;51.946;4.838;2023-02-18T01:44:47;9.30;99.90
39371;DHT22;25099;51.946;4.838;2023-02-18T01:47:14;9.40;99.90
39371;DHT22;25099;51.946;4.838;2023-02-18T01:49:40;9.40;99.90
39371;DHT22;25099;51.946;4.838;2023-02-18T01:52:18;9.40;99.90
39371;DHT22;25099;51.946;4.838;2023-02-18T01:54:48;9.50;99.90
39371;DHT22;25099;51.946;4.838;2023-02-18T01:57:24;9.40;99.90
39371;DHT22;25099;51.946;4.838;2023-02-18T01:59:56;9.50;99.90
39371;DHT22;25099;51.946;4.838;2023-02-18T02:02:26;9.50;99.90
39371;DHT22;25099;51.946;4.838;2023-02-18T02:04:52;9.50;99.90
39371;DHT22;25099;51.946;4.838;2023-02-18T02:07:20;9.50;99.90
39371;DHT22;25099;51.946;4.838;2023-02-18T02:09:47;9.50;99.90
39371;DHT22;25099;51.946;4.838;2023-02-18T02:24:22;9.70;99.90
39371;DHT22;25099;51.946;4.838;2023-02-18T02:37:55;9.80;99.90
39371;DHT22;25099;51.946;4.838;2023-02-18T02:43:24;9.90;99.90
39371;DHT22;25099;51.946;4.838;2023-02-18T02:48:44;9.90;99.90
39371;DHT22;25099;51.946;4.838;2023-02-18T02:51:25;9.90;99.90
39371;DHT22;25099;51.946;4.838;2023-02-18T02:53:52;10.20;99.90
39371;DHT22;25099;51.946;4.838;2023-02-18T02:56:24;9.90;99.90
39371;DHT22;25099;51.946;4.838;2023-02-18T02:59:05;9.90;99.90
39371;DHT22;25099;51.946;4.838;2023-02-18T03:02:02;10.00;99.90
39371;DHT22;25099;51.946;4.838;2023-02-18T03:10:41;9.90;99.90
39371;DHT22;25099;51.946;4.838;2023-02-18T03:18:56;10.00;99.90
39371;DHT22;25099;51.946;4.838;2023-02-18T03:21:31;10.00;99.90
39371;DHT22;25099;51.946;4.838;2023-02-18T03:26:57;10.00;99.90
39371;DHT22;25099;51.946;4.838;2023-02-18T03:29:24;10.10;99.90
39371;DHT22;25099;51.946;4.838;2023-02-18T03:31:54;10.10;99.90
39371;DHT22;25099;51.946;4.838;2023-02-18T03:34:23;10.10;99.90
39371;DHT22;25099;51.946;4.838;2023-02-18T03:36:50;10.20;99.90
39371;DHT22;25099;51.946;4.838;2023-02-18T03:39:18;10.10;99.90
39371;DHT22;25099;51.946;4.838;2023-02-18T03:41:44;10.20;99.90
39371;DHT22;25099;51.946;4.838;2023-02-18T03:44:11;10.20;99.90
39371;DHT22;25099;51.946;4.838;2023-02-18T03:46:39;10.20;99.90
39371;DHT22;25099;51.946;4.838;2023-02-18T03:49:05;10.10;99.90
39371;DHT22;25099;51.946;4.838;2023-02-18T03:51:31;10.20;99.90
39371;DHT22;25099;51.946;4.838;2023-02-18T03:53:57;10.20;99.90
39371;DHT22;25099;51.946;4.838;2023-02-18T03:56:23;10.40;99.90
39371;DHT22;25099;51.946;4.838;2023-02-18T03:58:48;10.10;99.90
39371;DHT22;25099;51.946;4.838;2023-02-18T04:01:14;10.10;99.90
39371;DHT22;25099;51.946;4.838;2023-02-18T04:03:40;10.10;99.90
39371;DHT22;25099;51.946;4.838;2023-02-18T04:06:06;10.10;99.90
39371;DHT22;25099;51.946;4.838;2023-02-18T04:08:31;10.10;99.90
39371;DHT22;25099;51.946;4.838;2023-02-18T04:10:57;10.10;99.90
39371;DHT22;25099;51.946;4.838;2023-02-18T04:13:22;10.10;99.90
39371;DHT22;25099;51.946;4.838;2023-02-18T04:15:49;10.10;99.90
39371;DHT22;25099;51.946;4.838;2023-02-18T04:18:15;10.90;99.90
39371;DHT22;25099;51.946;4.838;2023-02-18T04:20:40;10.00;99.90
39371;DHT22;25099;51.946;4.838;2023-02-18T04:23:06;10.00;99.90
39371;DHT22;25099;51.946;4.838;2023-02-18T04:25:32;9.90;99.90
39371;DHT22;25099;51.946;4.838;2023-02-18T04:27:57;9.90;99.90
39371;DHT22;25099;51.946;4.838;2023-02-18T04:30:23;9.80;99.90
39371;DHT22;25099;51.946;4.838;2023-02-18T04:32:49;9.90;99.90
39371;DHT22;25099;51.946;4.838;2023-02-18T04:35:14;9.80;99.90
39371;DHT22;25099;51.946;4.838;2023-02-18T04:37:40;10.40;99.90
39371;DHT22;25099;51.946;4.838;2023-02-18T04:40:06;10.30;99.90
39371;DHT22;25099;51.946;4.838;2023-02-18T04:42:33;9.80;99.90
39371;DHT22;25099;51.946;4.838;2023-02-18T04:44:58;9.80;99.90
39371;DHT22;25099;51.946;4.838;2023-02-18T04:47:24;9.80;99.90
39371;DHT22;25099;51.946;4.838;2023-02-18T04:49:49;9.80;99.90
39371;DHT22;25099;51.946;4.838;2023-02-18T04:52:15;9.80;99.90
39371;DHT22;25099;51.946;4.838;2023-02-18T04:54:41;9.80;99.90
39371;DHT22;25099;51.946;4.838;2023-02-18T04:57:06;9.80;99.90
39371;DHT22;25099;51.946;4.838;2023-02-18T04:59:32;9.80;99.90
39371;DHT22;25099;51.946;4.838;2023-02-18T05:01:57;9.80;99.90
39371;DHT22;25099;51.946;4.838;2023-02-18T05:04:23;9.70;99.90
39371;DHT22;25099;51.946;4.838;2023-02-18T05:06:49;9.70;99.90
39371;DHT22;25099;51.946;4.838;2023-02-18T05:09:14;9.70;99.90
39371;DHT22;25099;51.946;4.838;2023-02-18T05:11:40;9.70;99.90
39371;DHT22;25099;51.946;4.838;2023-02-18T05:14:06;10.20;99.90
39371;DHT22;25099;51.946;4.838;2023-02-18T05:16:32;10.60;99.90
39371;DHT22;25099;51.946;4.838;2023-02-18T05:18:57;9.70;99.90
39371;DHT22;25099;51.946;4.838;2023-02-18T05:21:23;9.70;99.90
39371;DHT22;25099;51.946;4.838;2023-02-18T05:23:48;9.70;99.90
39371;DHT22;25099;51.946;4.838;2023-02-18T05:26:14;9.70;99.90
39371;DHT22;25099;51.946;4.838;2023-02-18T05:28:39;9.70;99.90
39371;DHT22;25099;51.946;4.838;2023-02-18T05:31:05;9.70;99.90
39371;DHT22;25099;51.946;4.838;2023-02-18T05:33:30;9.80;99.90
39371;DHT22;25099;51.946;4.838;2023-02-18T05:35:56;9.70;99.90
39371;DHT22;25099;51.946;4.838;2023-02-18T05:38:22;10.10;99.90
39371;DHT22;25099;51.946;4.838;2023-02-18T05:40:48;9.80;99.90
39371;DHT22;25099;51.946;4.838;2023-02-18T05:43:14;9.80;99.90
39371;DHT22;25099;51.946;4.838;2023-02-18T05:45:39;9.80;99.90
39371;DHT22;25099;51.946;4.838;2023-02-18T05:48:05;9.80;99.90
39371;DHT22;25099;51.946;4.838;2023-02-18T05:50:31;9.80;99.90
39371;DHT22;25099;51.946;4.838;2023-02-18T05:52:56;9.80;99.90
39371;DHT22;25099;51.946;4.838;2023-02-18T05:55:22;10.10;99.90
39371;DHT22;25099;51.946;4.838;2023-02-18T05:57:48;9.80;99.90
39371;DHT22;25099;51.946;4.838;2023-02-18T06:00:14;9.80;99.90
39371;DHT22;25099;51.946;4.838;2023-02-18T06:02:40;9.70;99.90
39371;DHT22;25099;51.946;4.838;2023-02-18T06:05:06;9.70;99.90
39371;DHT22;25099;51.946;4.838;2023-02-18T06:07:32;9.70;99.90
39371;DHT22;25099;51.946;4.838;2023-02-18T06:09:57;9.70;99.90
39371;DHT22;25099;51.946;4.838;2023-02-18T06:12:23;9.70;99.90
39371;DHT22;25099;51.946;4.838;2023-02-18T06:14:49;9.70;99.90
39371;DHT22;25099;51.946;4.838;2023-02-18T06:17:14;9.70;99.90
39371;DHT22;25099;51.946;4.838;2023-02-18T06:19:40;9.70;99.90
39371;DHT22;25099;51.946;4.838;2023-02-18T06:22:06;9.70;99.90
39371;DHT22;25099;51.946;4.838;2023-02-18T06:24:33;9.80;99.90
39371;DHT22;25099;51.946;4.838;2023-02-18T06:26:58;9.80;99.90
39371;DHT22;25099;51.946;4.838;2023-02-18T06:29:24;9.80;99.90
39371;DHT22;25099;51.946;4.838;2023-02-18T06:31:50;9.80;99.90
39371;DHT22;25099;51.946;4.838;2023-02-18T06:34:15;10.90;99.90
39371;DHT22;25099;51.946;4.838;2023-02-18T06:36:44;9.80;99.90
39371;DHT22;25099;51.946;4.838;2023-02-18T06:39:09;9.80;99.90
39371;DHT22;25099;51.946;4.838;2023-02-18T06:41:35;9.90;99.90
39371;DHT22;25099;51.946;4.838;2023-02-18T06:44:02;9.90;99.90
39371;DHT22;25099;51.946;4.838;2023-02-18T06:46:28;9.80;99.90
39371;DHT22;25099;51.946;4.838;2023-02-18T06:48:53;9.80;99.90
39371;DHT22;25099;51.946;4.838;2023-02-18T06:51:19;9.80;99.90
39371;DHT22;25099;51.946;4.838;2023-02-18T06:53:45;9.80;99.90
39371;DHT22;25099;51.946;4.838;2023-02-18T06:56:11;10.20;99.90
39371;DHT22;25099;51.946;4.838;2023-02-18T06:58:37;9.80;99.90
39371;DHT22;25099;51.946;4.838;2023-02-18T07:01:04;9.70;99.90
39371;DHT22;25099;51.946;4.838;2023-02-18T07:03:29;10.50;99.90
39371;DHT22;25099;51.946;4.838;2023-02-18T07:05:55;11.20;99.90
39371;DHT22;25099;51.946;4.838;2023-02-18T07:08:21;9.70;99.90
39371;DHT22;25099;51.946;4.838;2023-02-18T07:10:47;9.70;99.90
39371;DHT22;25099;51.946;4.838;2023-02-18T07:13:13;9.70;99.90
39371;DHT22;25099;51.946;4.838;2023-02-18T07:15:38;9.70;99.90
39371;DHT22;25099;51.946;4.838;2023-02-18T07:18:04;9.70;99.90
39371;DHT22;25099;51.946;4.838;2023-02-18T07:20:29;9.70;99.90
39371;DHT22;25099;51.946;4.838;2023-02-18T07:22:55;9.70;99.90
39371;DHT22;25099;51.946;4.838;2023-02-18T07:25:21;9.70;99.90
39371;DHT22;25099;51.946;4.838;2023-02-18T07:27:47;9.70;99.90
39371;DHT22;25099;51.946;4.838;2023-02-18T07:30:13;9.70;99.90
39371;DHT22;25099;51.946;4.838;2023-02-18T07:32:39;9.70;99.90
39371;DHT22;25099;51.946;4.838;2023-02-18T07:35:05;9.70;99.90
39371;DHT22;25099;51.946;4.838;2023-02-18T07:37:31;9.70;99.90
39371;DHT22;25099;51.946;4.838;2023-02-18T07:39:57;9.60;99.90
39371;DHT22;25099;51.946;4.838;2023-02-18T07:42:23;9.70;99.90
39371;DHT22;25099;51.946;4.838;2023-02-18T07:44:51;9.70;99.90
39371;DHT22;25099;51.946;4.838;2023-02-18T07:47:17;9.70;99.90
39371;DHT22;25099;51.946;4.838;2023-02-18T07:49:46;9.70;99.90
39371;DHT22;25099;51.946;4.838;2023-02-18T07:52:12;9.80;99.90
39371;DHT22;25099;51.946;4.838;2023-02-18T07:54:38;9.70;99.90
39371;DHT22;25099;51.946;4.838;2023-02-18T07:57:03;9.80;99.90
39371;DHT22;25099;51.946;4.838;2023-02-18T07:59:29;9.80;99.90
39371;DHT22;25099;51.946;4.838;2023-02-18T08:01:55;9.80;99.90
39371;DHT22;25099;51.946;4.838;2023-02-18T08:04:20;9.80;99.90
39371;DHT22;25099;51.946;4.838;2023-02-18T08:06:47;9.80;99.90
39371;DHT22;25099;51.946;4.838;2023-02-18T08:09:15;9.80;99.90
39371;DHT22;25099;51.946;4.838;2023-02-18T08:11:41;9.80;99.90
39371;DHT22;25099;51.946;4.838;2023-02-18T08:14:06;9.80;99.90
39371;DHT22;25099;51.946;4.838;2023-02-18T08:16:41;9.80;99.90
39371;DHT22;25099;51.946;4.838;2023-02-18T08:19:07;9.80;99.90
39371;DHT22;25099;51.946;4.838;2023-02-18T08:21:33;10.60;99.90
39371;DHT22;25099;51.946;4.838;2023-02-18T08:23:58;9.70;99.90
39371;DHT22;25099;51.946;4.838;2023-02-18T08:26:24;9.80;99.90
39371;DHT22;25099;51.946;4.838;2023-02-18T08:28:50;9.80;99.90
39371;DHT22;25099;51.946;4.838;2023-02-18T08:31:25;9.70;99.90
39371;DHT22;25099;51.946;4.838;2023-02-18T08:33:52;9.80;99.90
39371;DHT22;25099;51.946;4.838;2023-02-18T08:36:19;9.80;99.90
39371;DHT22;25099;51.946;4.838;2023-02-18T08:38:45;9.80;99.90
39371;DHT22;25099;51.946;4.838;2023-02-18T08:41:10;9.80;99.90
39371;DHT22;25099;51.946;4.838;2023-02-18T08:43:38;9.80;99.90
39371;DHT22;25099;51.946;4.838;2023-02-18T08:46:04;9.80;99.90
39371;DHT22;25099;51.946;4.838;2023-02-18T08:48:30;9.70;99.90
39371;DHT22;25099;51.946;4.838;2023-02-18T08:50:56;10.80;99.90
39371;DHT22;25099;51.946;4.838;2023-02-18T08:53:22;10.50;99.90
39371;DHT22;25099;51.946;4.838;2023-02-18T08:55:47;9.80;99.90
39371;DHT22;25099;51.946;4.838;2023-02-18T08:58:13;9.80;99.90
39371;DHT22;25099;51.946;4.838;2023-02-18T09:00:41;9.90;99.90
39371;DHT22;25099;51.946;4.838;2023-02-18T09:03:08;9.90;99.90
39371;DHT22;25099;51.946;4.838;2023-02-18T09:05:34;10.70;99.90
39371;DHT22;25099;51.946;4.838;2023-02-18T09:08:00;9.90;99.90
39371;DHT22;25099;51.946;4.838;2023-02-18T09:10:26;9.90;99.90
39371;DHT22;25099;51.946;4.838;2023-02-18T09:12:51;10.90;99.90
39371;DHT22;25099;51.946;4.838;2023-02-18T09:15:25;10.60;99.90
39371;DHT22;25099;51.946;4.838;2023-02-18T09:17:52;9.90;99.90
39371;DHT22;25099;51.946;4.838;2023-02-18T09:20:18;9.90;99.90
39371;DHT22;25099;51.946;4.838;2023-02-18T09:22:43;10.80;99.90
39371;DHT22;25099;51.946;4.838;2023-02-18T09:25:09;9.80;99.90
39371;DHT22;25099;51.946;4.838;2023-02-18T09:27:35;9.90;99.90
39371;DHT22;25099;51.946;4.838;2023-02-18T09:30:00;9.90;99.90
39371;DHT22;25099;51.946;4.838;2023-02-18T09:32:26;9.90;99.90
39371;DHT22;25099;51.946;4.838;2023-02-18T09:34:52;9.90;99.90
39371;DHT22;25099;51.946;4.838;2023-02-18T09:37:17;9.90;99.90
39371;DHT22;25099;51.946;4.838;2023-02-18T09:39:43;9.90;99.90
39371;DHT22;25099;51.946;4.838;2023-02-18T09:42:14;9.90;99.90
39371;DHT22;25099;51.946;4.838;2023-02-18T09:45:03;9.90;99.90
39371;DHT22;25099;51.946;4.838;2023-02-18T09:47:39;9.90;99.90
39371;DHT22;25099;51.946;4.838;2023-02-18T09:53:00;9.90;99.90
39371;DHT22;25099;51.946;4.838;2023-02-18T09:55:38;9.90;99.90
39371;DHT22;25099;51.946;4.838;2023-02-18T09:58:25;10.00;99.90
39371;DHT22;25099;51.946;4.838;2023-02-18T10:04:06;10.00;99.90
39371;DHT22;25099;51.946;4.838;2023-02-18T10:06:35;10.00;99.90
39371;DHT22;25099;51.946;4.838;2023-02-18T10:09:03;11.10;99.90
39371;DHT22;25099;51.946;4.838;2023-02-18T10:11:41;10.10;99.90
39371;DHT22;25099;51.946;4.838;2023-02-18T10:14:12;11.10;99.90
39371;DHT22;25099;51.946;4.838;2023-02-18T10:16:39;10.10;99.90
39371;DHT22;25099;51.946;4.838;2023-02-18T10:21:44;10.10;99.90
39371;DHT22;25099;51.946;4.838;2023-02-18T10:24:30;10.10;99.90
39371;DHT22;25099;51.946;4.838;2023-02-18T10:26:57;10.10;99.90
39371;DHT22;25099;51.946;4.838;2023-02-18T10:29:23;10.20;99.90
39371;DHT22;25099;51.946;4.838;2023-02-18T10:34:40;10.20;99.90
39371;DHT22;25099;51.946;4.838;2023-02-18T10:40:28;10.20;99.90
39371;DHT22;25099;51.946;4.838;2023-02-18T10:43:32;10.20;99.90
39371;DHT22;25099;51.946;4.838;2023-02-18T10:46:11;10.20;99.90
39371;DHT22;25099;51.946;4.838;2023-02-18T10:51:23;10.30;99.90
39371;DHT22;25099;51.946;4.838;2023-02-18T10:53:52;10.30;99.90
39371;DHT22;25099;51.946;4.838;2023-02-18T10:59:19;11.00;99.90
39371;DHT22;25099;51.946;4.838;2023-02-18T11:01:45;10.40;99.90
39371;DHT22;25099;51.946;4.838;2023-02-18T11:04:19;10.50;99.90
39371;DHT22;25099;51.946;4.838;2023-02-18T11:06:50;10.50;99.90
39371;DHT22;25099;51.946;4.838;2023-02-18T11:09:38;11.50;99.90
39371;DHT22;25099;51.946;4.838;2023-02-18T11:12:13;10.60;99.90
39371;DHT22;25099;51.946;4.838;2023-02-18T11:14:46;10.50;99.90
39371;DHT22;25099;51.946;4.838;2023-02-18T11:17:30;11.60;99.90
39371;DHT22;25099;51.946;4.838;2023-02-18T11:20:00;10.90;99.90
39371;DHT22;25099;51.946;4.838;2023-02-18T11:22:44;10.70;99.90
39371;DHT22;25099;51.946;4.838;2023-02-18T11:25:36;10.70;99.90
39371;DHT22;25099;51.946;4.838;2023-02-18T11:28:23;10.70;99.90
39371;DHT22;25099;51.946;4.838;2023-02-18T11:30:56;12.20;99.90
39371;DHT22;25099;51.946;4.838;2023-02-18T11:33:41;10.80;99.90
39371;DHT22;25099;51.946;4.838;2023-02-18T11:36:34;10.80;99.90
39371;DHT22;25099;51.946;4.838;2023-02-18T11:39:05;10.80;99.90
39371;DHT22;25099;51.946;4.838;2023-02-18T11:41:41;10.80;99.90
39371;DHT22;25099;51.946;4.838;2023-02-18T11:49:42;10.90;99.90
39371;DHT22;25099;51.946;4.838;2023-02-18T11:52:33;10.80;99.90
39371;DHT22;25099;51.946;4.838;2023-02-18T11:55:21;10.90;99.90
39371;DHT22;25099;51.946;4.838;2023-02-18T11:58:02;10.90;99.90
39371;DHT22;25099;51.946;4.838;2023-02-18T12:00:50;10.90;99.90
39371;DHT22;25099;51.946;4.838;2023-02-18T12:03:38;10.90;99.90
39371;DHT22;25099;51.946;4.838;2023-02-18T12:06:24;11.00;99.90
39371;DHT22;25099;51.946;4.838;2023-02-18T12:11:47;11.00;99.90
39371;DHT22;25099;51.946;4.838;2023-02-18T12:14:17;11.80;99.90
39371;DHT22;25099;51.946;4.838;2023-02-18T12:19:45;11.10;99.90
39371;DHT22;25099;51.946;4.838;2023-02-18T12:25:23;11.00;99.90
39371;DHT22;25099;51.946;4.838;2023-02-18T12:31:14;11.10;99.90
39371;DHT22;25099;51.946;4.838;2023-02-18T13:15:24;12.10;99.90
39371;DHT22;25099;51.946;4.838;2023-02-18T13:17:56;11.20;99.90
39371;DHT22;25099;51.946;4.838;2023-02-18T13:20:34;11.20;99.90
39371;DHT22;25099;51.946;4.838;2023-02-18T13:23:05;11.20;99.90
39371;DHT22;25099;51.946;4.838;2023-02-18T13:25:34;11.40;99.90
39371;DHT22;25099;51.946;4.838;2023-02-18T13:28:11;11.20;99.90
39371;DHT22;25099;51.946;4.838;2023-02-18T13:30:49;11.30;99.90
39371;DHT22;25099;51.946;4.838;2023-02-18T13:33:55;11.20;99.90
39371;DHT22;25099;51.946;4.838;2023-02-18T13:39:13;11.70;99.90
39371;DHT22;25099;51.946;4.838;2023-02-18T13:41:45;11.40;99.90
39371;DHT22;25099;51.946;4.838;2023-02-18T13:46:49;11.40;99.90
39371;DHT22;25099;51.946;4.838;2023-02-18T13:49:21;12.30;99.90
39371;DHT22;25099;51.946;4.838;2023-02-18T13:51:56;12.30;99.90
39371;DHT22;25099;51.946;4.838;2023-02-18T13:54:29;12.50;99.90
39371;DHT22;25099;51.946;4.838;2023-02-18T13:57:04;11.90;99.90
39371;DHT22;25099;51.946;4.838;2023-02-18T13:59:40;12.40;99.90
39371;DHT22;25099;51.946;4.838;2023-02-18T14:02:38;12.50;99.90
39371;DHT22;25099;51.946;4.838;2023-02-18T14:05:38;11.60;99.90
39371;DHT22;25099;51.946;4.838;2023-02-18T14:08:32;11.60;99.90
39371;DHT22;25099;51.946;4.838;2023-02-18T14:16:14;11.60;99.90
39371;DHT22;25099;51.946;4.838;2023-02-18T14:26:31;11.60;99.90
39371;DHT22;25099;51.946;4.838;2023-02-18T14:29:05;12.20;99.90
39371;DHT22;25099;51.946;4.838;2023-02-18T14:31:43;12.40;99.90
39371;DHT22;25099;51.946;4.838;2023-02-18T14:37:16;11.60;99.90
39371;DHT22;25099;51.946;4.838;2023-02-18T14:43:03;11.60;99.90
39371;DHT22;25099;51.946;4.838;2023-02-18T14:45:34;11.50;99.90
39371;DHT22;25099;51.946;4.838;2023-02-18T14:48:16;11.50;99.90
39371;DHT22;25099;51.946;4.838;2023-02-18T14:50:47;12.20;99.90
39371;DHT22;25099;51.946;4.838;2023-02-18T14:53:18;12.00;99.90
39371;DHT22;25099;51.946;4.838;2023-02-18T14:55:50;11.30;99.90
39371;DHT22;25099;51.946;4.838;2023-02-18T15:00:50;11.40;99.90
39371;DHT22;25099;51.946;4.838;2023-02-18T15:03:22;11.60;99.90
39371;DHT22;25099;51.946;4.838;2023-02-18T15:05:49;11.90;99.90
39371;DHT22;25099;51.946;4.838;2023-02-18T15:08:36;12.20;99.90
39371;DHT22;25099;51.946;4.838;2023-02-18T15:11:05;11.80;99.90
39371;DHT22;25099;51.946;4.838;2023-02-18T15:13:41;12.60;99.90
39371;DHT22;25099;51.946;4.838;2023-02-18T15:16:40;11.00;99.90
39371;DHT22;25099;51.946;4.838;2023-02-18T15:19:06;11.50;99.90
39371;DHT22;25099;51.946;4.838;2023-02-18T15:21:43;11.30;99.90
39371;DHT22;25099;51.946;4.838;2023-02-18T15:24:38;12.10;99.90
39371;DHT22;25099;51.946;4.838;2023-02-18T15:27:24;11.00;99.90
39371;DHT22;25099;51.946;4.838;2023-02-18T15:32:55;11.20;99.90
39371;DHT22;25099;51.946;4.838;2023-02-18T15:35:25;12.00;99.90
39371;DHT22;25099;51.946;4.838;2023-02-18T15:37:55;12.00;99.90
39371;DHT22;25099;51.946;4.838;2023-02-18T15:40:30;11.80;99.90
39371;DHT22;25099;51.946;4.838;2023-02-18T15:43:15;12.10;99.90
39371;DHT22;25099;51.946;4.838;2023-02-18T15:45:44;11.80;99.90
39371;DHT22;25099;51.946;4.838;2023-02-18T15:48:44;12.00;99.90
39371;DHT22;25099;51.946;4.838;2023-02-18T15:51:12;11.00;99.90
39371;DHT22;25099;51.946;4.838;2023-02-18T15:53:41;11.50;99.90
39371;DHT22;25099;51.946;4.838;2023-02-18T15:56:27;11.80;99.90
39371;DHT22;25099;51.946;4.838;2023-02-18T15:59:19;10.90;99.90
39371;DHT22;25099;51.946;4.838;2023-02-18T16:01:50;10.90;99.90
39371;DHT22;25099;51.946;4.838;2023-02-18T16:04:16;11.70;99.90
39371;DHT22;25099;51.946;4.838;2023-02-18T16:06:53;12.10;99.90
39371;DHT22;25099;51.946;4.838;2023-02-18T16:09:28;11.70;99.90
39371;DHT22;25099;51.946;4.838;2023-02-18T16:11:57;11.60;99.90
39371;DHT22;25099;51.946;4.838;2023-02-18T16:14:46;10.90;99.90
39371;DHT22;25099;51.946;4.838;2023-02-18T16:17:13;10.90;99.90
39371;DHT22;25099;51.946;4.838;2023-02-18T16:25:12;10.80;99.90
39371;DHT22;25099;51.946;4.838;2023-02-18T16:28:12;10.80;99.90
39371;DHT22;25099;51.946;4.838;2023-02-18T16:30:38;10.70;99.90
39371;DHT22;25099;51.946;4.838;2023-02-18T16:33:06;11.50;99.90
39371;DHT22;25099;51.946;4.838;2023-02-18T16:35:45;10.70;99.90
39371;DHT22;25099;51.946;4.838;2023-02-18T16:38:24;10.70;99.90
39371;DHT22;25099;51.946;4.838;2023-02-18T16:40:50;11.60;99.90
39371;DHT22;25099;51.946;4.838;2023-02-18T16:43:26;11.90;99.90
39371;DHT22;25099;51.946;4.838;2023-02-18T16:45:58;11.50;99.90
39371;DHT22;25099;51.946;4.838;2023-02-18T16:51:24;10.60;99.90
39371;DHT22;25099;51.946;4.838;2023-02-18T16:53:51;11.30;99.90
39371;DHT22;25099;51.946;4.838;2023-02-18T16:56:20;10.30;99.90
39371;DHT22;25099;51.946;4.838;2023-02-18T16:58:46;11.30;99.90
39371;DHT22;25099;51.946;4.838;2023-02-18T17:01:35;11.20;99.90
39371;DHT22;25099;51.946;4.838;2023-02-18T17:04:03;10.50;99.90
39371;DHT22;25099;51.946;4.838;2023-02-18T17:06:30;10.50;99.90
39371;DHT22;25099;51.946;4.838;2023-02-18T17:08:56;11.30;99.90
39371;DHT22;25099;51.946;4.838;2023-02-18T17:11:28;10.40;99.90
39371;DHT22;25099;51.946;4.838;2023-02-18T17:13:55;10.40;99.90
39371;DHT22;25099;51.946;4.838;2023-02-18T17:16:22;11.30;99.90
39371;DHT22;25099;51.946;4.838;2023-02-18T17:18:48;10.40;99.90
39371;DHT22;25099;51.946;4.838;2023-02-18T17:21:17;11.20;99.90
39371;DHT22;25099;51.946;4.838;2023-02-18T17:23:45;11.30;99.90
39371;DHT22;25099;51.946;4.838;2023-02-18T17:28:43;10.30;99.90
39371;DHT22;25099;51.946;4.838;2023-02-18T17:31:14;10.30;99.90
39371;DHT22;25099;51.946;4.838;2023-02-18T17:33:42;10.30;99.90
39371;DHT22;25099;51.946;4.838;2023-02-18T17:36:09;10.70;99.90
39371;DHT22;25099;51.946;4.838;2023-02-18T17:38:58;9.80;99.90
39371;DHT22;25099;51.946;4.838;2023-02-18T17:41:24;10.30;99.90
39371;DHT22;25099;51.946;4.838;2023-02-18T17:43:50;11.10;99.90
39371;DHT22;25099;51.946;4.838;2023-02-18T17:46:17;11.20;99.90
39371;DHT22;25099;51.946;4.838;2023-02-18T17:48:44;11.30;99.90
39371;DHT22;25099;51.946;4.838;2023-02-18T17:51:24;10.80;99.90
39371;DHT22;25099;51.946;4.838;2023-02-18T17:53:50;10.30;99.90
39371;DHT22;25099;51.946;4.838;2023-02-18T17:56:16;11.10;99.90
39371;DHT22;25099;51.946;4.838;2023-02-18T17:58:41;11.00;99.90
39371;DHT22;25099;51.946;4.838;2023-02-18T18:01:09;11.10;99.90
39371;DHT22;25099;51.946;4.838;2023-02-18T18:03:34;11.00;99.90
39371;DHT22;25099;51.946;4.838;2023-02-18T18:06:00;10.30;99.90
39371;DHT22;25099;51.946;4.838;2023-02-18T18:08:26;10.40;99.90
39371;DHT22;25099;51.946;4.838;2023-02-18T18:10:54;10.60;99.90
39371;DHT22;25099;51.946;4.838;2023-02-18T18:13:38;11.20;99.90
39371;DHT22;25099;51.946;4.838;2023-02-18T18:16:09;10.90;99.90
39371;DHT22;25099;51.946;4.838;2023-02-18T18:18:36;11.40;99.90
39371;DHT22;25099;51.946;4.838;2023-02-18T18:21:01;11.10;99.90
39371;DHT22;25099;51.946;4.838;2023-02-18T18:23:28;10.40;99.90
39371;DHT22;25099;51.946;4.838;2023-02-18T18:25:55;10.60;99.90
39371;DHT22;25099;51.946;4.838;2023-02-18T18:28:23;11.00;99.90
39371;DHT22;25099;51.946;4.838;2023-02-18T18:30:50;10.40;99.90
39371;DHT22;25099;51.946;4.838;2023-02-18T18:33:21;10.30;99.90
39371;DHT22;25099;51.946;4.838;2023-02-18T18:35:47;10.70;99.90
39371;DHT22;25099;51.946;4.838;2023-02-18T18:38:15;10.30;99.90
39371;DHT22;25099;51.946;4.838;2023-02-18T18:40:41;10.30;99.90